sensor_id;sensor_type;location;lat;lon;timestamp;temperature;humidity
75821;DHT22;64454;51.984;9.838;2023-12-20T00:01:38;9.60;99.90
75821;DHT22;64454;51.984;9.838;2023-12-20T00:04:04;9.60;99.90
75821;DHT22;64454;51.984;9.838;2023-12-20T00:06:31;9.70;99.90
75821;DHT22;64454;51.984;9.838;2023-12-20T00:08:58;9.70;99.90
75821;DHT22;64454;51.984;9.838;2023-12-20T00:11:24;9.80;99.90
75821;DHT22;64454;51.984;9.838;2023-12-20T00:13:50;9.80;97.00
75821;DHT22;64454;51.984;9.838;2023-12-20T00:16:17;9.80;85.80
75821;DHT22;64454;51.984;9.838;2023-12-20T00:18:43;9.80;96.20
75821;DHT22;64454;51.984;9.838;2023-12-20T00:21:09;9.90;99.90
75821;DHT22;64454;51.984;9.838;2023-12-20T00:23:35;9.80;93.40
75821;DHT22;64454;51.984;9.838;2023-12-20T00:26:02;9.80;85.00
75821;DHT22;64454;51.984;9.838;2023-12-20T00:28:28;9.70;88.90
75821;DHT22;64454;51.984;9.838;2023-12-20T00:30:55;9.70;99.90
75821;DHT22;64454;51.984;9.838;2023-12-20T00:33:21;9.60;99.90
75821;DHT22;64454;51.984;9.838;2023-12-20T00:35:47;9.60;99.90
75821;DHT22;64454;51.984;9.838;2023-12-20T00:38:14;9.50;99.90
75821;DHT22;64454;51.984;9.838;2023-12-20T00:40:40;9.40;99.90
75821;DHT22;64454;51.984;9.838;2023-12-20T00:43:07;9.30;99.90
75821;DHT22;64454;51.984;9.838;2023-12-20T00:45:33;9.30;99.90
75821;DHT22;64454;51.984;9.838;2023-12-20T00:47:59;9.30;99.90
75821;DHT22;64454;51.984;9.838;2023-12-20T00:50:25;9.40;99.90
75821;DHT22;64454;51.984;9.838;2023-12-20T00:52:51;9.40;99.90
75821;DHT22;64454;51.984;9.838;2023-12-20T00:55:17;9.40;99.90
75821;DHT22;64454;51.984;9.838;2023-12-20T00:57:43;9.40;99.90
75821;DHT22;64454;51.984;9.838;2023-12-20T01:00:11;9.40;99.90
75821;DHT22;64454;51.984;9.838;2023-12-20T01:02:38;9.30;99.90
75821;DHT22;64454;51.984;9.838;2023-12-20T01:05:06;9.40;99.90
75821;DHT22;64454;51.984;9.838;2023-12-20T01:07:34;9.20;99.90
75821;DHT22;64454;51.984;9.838;2023-12-20T01:10:01;9.10;99.90
75821;DHT22;64454;51.984;9.838;2023-12-20T01:12:27;9.10;99.90
75821;DHT22;64454;51.984;9.838;2023-12-20T01:14:53;9.00;99.90
75821;DHT22;64454;51.984;9.838;2023-12-20T01:17:19;9.00;99.90
75821;DHT22;64454;51.984;9.838;2023-12-20T01:19:46;9.00;99.90
75821;DHT22;64454;51.984;9.838;2023-12-20T01:22:12;9.10;99.90
75821;DHT22;64454;51.984;9.838;2023-12-20T01:24:38;9.20;99.90
75821;DHT22;64454;51.984;9.838;2023-12-20T01:27:04;9.10;99.90
75821;DHT22;64454;51.984;9.838;2023-12-20T01:29:30;9.20;99.90
75821;DHT22;64454;51.984;9.838;2023-12-20T01:31:56;9.10;99.90
75821;DHT22;64454;51.984;9.838;2023-12-20T01:34:23;9.20;99.90
75821;DHT22;64454;51.984;9.838;2023-12-20T01:36:49;9.30;99.90
75821;DHT22;64454;51.984;9.838;2023-12-20T01:39:15;9.10;99.90
75821;DHT22;64454;51.984;9.838;2023-12-20T01:41:41;8.80;99.90
75821;DHT22;64454;51.984;9.838;2023-12-20T01:44:07;8.60;99.90
75821;DHT22;64454;51.984;9.838;2023-12-20T01:46:34;8.60;95.10
75821;DHT22;64454;51.984;9.838;2023-12-20T01:49:00;8.30;59.50
75821;DHT22;64454;51.984;9.838;2023-12-20T01:51:27;8.30;65.30
75821;DHT22;64454;51.984;9.838;2023-12-20T01:53:55;8.30;62.20
75821;DHT22;64454;51.984;9.838;2023-12-20T01:56:23;8.20;57.40
75821;DHT22;64454;51.984;9.838;2023-12-20T01:58:50;8.20;67.30
75821;DHT22;64454;51.984;9.838;2023-12-20T02:01:16;8.10;56.40
75821;DHT22;64454;51.984;9.838;2023-12-20T02:03:42;8.00;57.50
75821;DHT22;64454;51.984;9.838;2023-12-20T02:06:09;8.00;78.90
75821;DHT22;64454;51.984;9.838;2023-12-20T02:08:36;7.90;70.20
75821;DHT22;64454;51.984;9.838;2023-12-20T02:11:02;7.90;73.70
75821;DHT22;64454;51.984;9.838;2023-12-20T02:13:29;7.90;72.00
75821;DHT22;64454;51.984;9.838;2023-12-20T02:15:56;8.10;87.70
75821;DHT22;64454;51.984;9.838;2023-12-20T02:18:22;8.20;81.90
75821;DHT22;64454;51.984;9.838;2023-12-20T02:20:49;8.30;71.10
75821;DHT22;64454;51.984;9.838;2023-12-20T02:23:15;8.20;41.10
75821;DHT22;64454;51.984;9.838;2023-12-20T02:25:41;8.30;43.50
75821;DHT22;64454;51.984;9.838;2023-12-20T02:28:08;8.40;34.60
75821;DHT22;64454;51.984;9.838;2023-12-20T02:30:34;8.30;34.70
75821;DHT22;64454;51.984;9.838;2023-12-20T02:33:01;8.40;34.20
75821;DHT22;64454;51.984;9.838;2023-12-20T02:35:29;8.40;27.40
75821;DHT22;64454;51.984;9.838;2023-12-20T02:37:55;8.30;16.30
75821;DHT22;64454;51.984;9.838;2023-12-20T02:40:22;8.20;31.50
75821;DHT22;64454;51.984;9.838;2023-12-20T02:42:48;8.20;24.10
75821;DHT22;64454;51.984;9.838;2023-12-20T02:45:14;8.20;23.10
75821;DHT22;64454;51.984;9.838;2023-12-20T02:47:40;8.30;21.80
75821;DHT22;64454;51.984;9.838;2023-12-20T02:50:07;8.30;24.30
75821;DHT22;64454;51.984;9.838;2023-12-20T02:52:33;8.40;18.80
75821;DHT22;64454;51.984;9.838;2023-12-20T02:54:59;8.20;14.90
75821;DHT22;64454;51.984;9.838;2023-12-20T02:57:26;8.30;23.50
75821;DHT22;64454;51.984;9.838;2023-12-20T02:59:52;8.30;19.90
75821;DHT22;64454;51.984;9.838;2023-12-20T03:02:18;8.30;30.70
75821;DHT22;64454;51.984;9.838;2023-12-20T03:04:44;8.50;31.80
75821;DHT22;64454;51.984;9.838;2023-12-20T03:07:11;8.60;35.00
75821;DHT22;64454;51.984;9.838;2023-12-20T03:09:37;8.60;10.10
75821;DHT22;64454;51.984;9.838;2023-12-20T03:12:04;8.40;1.00
75821;DHT22;64454;51.984;9.838;2023-12-20T03:14:31;8.20;1.00
75821;DHT22;64454;51.984;9.838;2023-12-20T03:16:57;8.00;9.30
75821;DHT22;64454;51.984;9.838;2023-12-20T03:19:23;8.10;18.10
75821;DHT22;64454;51.984;9.838;2023-12-20T03:21:49;8.00;11.70
75821;DHT22;64454;51.984;9.838;2023-12-20T03:24:15;8.00;15.60
75821;DHT22;64454;51.984;9.838;2023-12-20T03:26:41;8.10;15.80
75821;DHT22;64454;51.984;9.838;2023-12-20T03:29:07;8.10;20.10
75821;DHT22;64454;51.984;9.838;2023-12-20T03:31:34;7.90;1.00
75821;DHT22;64454;51.984;9.838;2023-12-20T03:34:00;7.90;1.00
75821;DHT22;64454;51.984;9.838;2023-12-20T03:36:26;8.00;1.00
75821;DHT22;64454;51.984;9.838;2023-12-20T03:38:52;8.20;3.50
75821;DHT22;64454;51.984;9.838;2023-12-20T03:41:18;8.30;1.00
75821;DHT22;64454;51.984;9.838;2023-12-20T03:43:44;8.20;1.00
75821;DHT22;64454;51.984;9.838;2023-12-20T03:46:10;8.20;1.00
75821;DHT22;64454;51.984;9.838;2023-12-20T03:48:37;8.30;1.00
75821;DHT22;64454;51.984;9.838;2023-12-20T03:51:04;8.30;1.00
75821;DHT22;64454;51.984;9.838;2023-12-20T03:53:30;8.10;1.00
75821;DHT22;64454;51.984;9.838;2023-12-20T03:55:56;8.10;1.00
75821;DHT22;64454;51.984;9.838;2023-12-20T03:58:22;8.10;1.00
75821;DHT22;64454;51.984;9.838;2023-12-20T04:00:48;7.90;1.00
75821;DHT22;64454;51.984;9.838;2023-12-20T04:03:14;7.80;1.00
75821;DHT22;64454;51.984;9.838;2023-12-20T04:05:41;7.80;1.00
75821;DHT22;64454;51.984;9.838;2023-12-20T04:08:07;7.70;1.00
75821;DHT22;64454;51.984;9.838;2023-12-20T04:10:34;7.80;1.00
75821;DHT22;64454;51.984;9.838;2023-12-20T04:13:00;7.80;1.00
75821;DHT22;64454;51.984;9.838;2023-12-20T04:15:26;7.80;1.00
75821;DHT22;64454;51.984;9.838;2023-12-20T04:17:52;7.80;1.00
75821;DHT22;64454;51.984;9.838;2023-12-20T04:20:18;7.80;1.00
75821;DHT22;64454;51.984;9.838;2023-12-20T04:22:45;7.90;1.00
75821;DHT22;64454;51.984;9.838;2023-12-20T04:25:11;7.80;1.00
75821;DHT22;64454;51.984;9.838;2023-12-20T04:27:37;7.90;1.00
75821;DHT22;64454;51.984;9.838;2023-12-20T04:30:04;7.80;1.00
75821;DHT22;64454;51.984;9.838;2023-12-20T04:32:31;7.80;1.00
75821;DHT22;64454;51.984;9.838;2023-12-20T04:34:57;7.80;1.00
75821;DHT22;64454;51.984;9.838;2023-12-20T04:37:24;7.90;1.00
75821;DHT22;64454;51.984;9.838;2023-12-20T04:39:51;7.80;1.00
75821;DHT22;64454;51.984;9.838;2023-12-20T04:42:17;7.70;1.00
75821;DHT22;64454;51.984;9.838;2023-12-20T04:44:43;7.70;1.00
75821;DHT22;64454;51.984;9.838;2023-12-20T04:47:09;7.60;1.00
75821;DHT22;64454;51.984;9.838;2023-12-20T04:49:35;7.70;1.00
75821;DHT22;64454;51.984;9.838;2023-12-20T04:52:01;7.80;1.00
75821;DHT22;64454;51.984;9.838;2023-12-20T04:54:27;7.80;1.00
75821;DHT22;64454;51.984;9.838;2023-12-20T04:56:54;7.70;1.00
75821;DHT22;64454;51.984;9.838;2023-12-20T04:59:20;7.90;1.00
75821;DHT22;64454;51.984;9.838;2023-12-20T05:01:46;7.90;1.00
75821;DHT22;64454;51.984;9.838;2023-12-20T05:04:13;7.80;1.00
75821;DHT22;64454;51.984;9.838;2023-12-20T05:06:39;7.80;1.00
75821;DHT22;64454;51.984;9.838;2023-12-20T05:09:05;7.80;1.00
75821;DHT22;64454;51.984;9.838;2023-12-20T05:11:32;7.80;1.00
75821;DHT22;64454;51.984;9.838;2023-12-20T05:13:59;7.80;1.00
75821;DHT22;64454;51.984;9.838;2023-12-20T05:16:25;7.90;1.00
75821;DHT22;64454;51.984;9.838;2023-12-20T05:18:51;7.90;1.00
75821;DHT22;64454;51.984;9.838;2023-12-20T05:21:18;7.90;1.00
75821;DHT22;64454;51.984;9.838;2023-12-20T05:23:45;8.00;1.00
75821;DHT22;64454;51.984;9.838;2023-12-20T05:26:11;7.90;1.00
75821;DHT22;64454;51.984;9.838;2023-12-20T05:28:37;7.90;1.00
75821;DHT22;64454;51.984;9.838;2023-12-20T05:31:04;7.90;1.00
75821;DHT22;64454;51.984;9.838;2023-12-20T05:33:30;8.00;1.00
75821;DHT22;64454;51.984;9.838;2023-12-20T05:35:56;8.00;1.00
75821;DHT22;64454;51.984;9.838;2023-12-20T05:38:22;8.00;1.00
75821;DHT22;64454;51.984;9.838;2023-12-20T05:40:48;7.80;1.00
75821;DHT22;64454;51.984;9.838;2023-12-20T05:43:14;7.80;1.00
75821;DHT22;64454;51.984;9.838;2023-12-20T05:45:41;7.80;1.00
75821;DHT22;64454;51.984;9.838;2023-12-20T05:48:08;7.80;1.00
75821;DHT22;64454;51.984;9.838;2023-12-20T05:50:34;7.70;1.00
75821;DHT22;64454;51.984;9.838;2023-12-20T05:53:00;7.60;1.00
75821;DHT22;64454;51.984;9.838;2023-12-20T05:55:26;7.70;1.00
75821;DHT22;64454;51.984;9.838;2023-12-20T05:57:52;7.80;1.00
75821;DHT22;64454;51.984;9.838;2023-12-20T06:00:19;7.80;1.00
75821;DHT22;64454;51.984;9.838;2023-12-20T06:02:45;7.80;1.00
75821;DHT22;64454;51.984;9.838;2023-12-20T06:05:12;7.70;1.00
75821;DHT22;64454;51.984;9.838;2023-12-20T06:07:38;7.70;1.00
75821;DHT22;64454;51.984;9.838;2023-12-20T06:10:05;7.70;1.00
75821;DHT22;64454;51.984;9.838;2023-12-20T06:12:31;7.70;1.00
75821;DHT22;64454;51.984;9.838;2023-12-20T06:14:58;7.80;1.00
75821;DHT22;64454;51.984;9.838;2023-12-20T06:17:24;7.70;1.00
75821;DHT22;64454;51.984;9.838;2023-12-20T06:19:51;7.80;1.00
75821;DHT22;64454;51.984;9.838;2023-12-20T06:22:17;7.90;1.00
75821;DHT22;64454;51.984;9.838;2023-12-20T06:24:44;7.80;1.00
75821;DHT22;64454;51.984;9.838;2023-12-20T06:27:10;7.70;1.00
75821;DHT22;64454;51.984;9.838;2023-12-20T06:29:36;7.60;14.40
75821;DHT22;64454;51.984;9.838;2023-12-20T06:32:03;7.70;17.50
75821;DHT22;64454;51.984;9.838;2023-12-20T06:34:29;7.70;24.30
75821;DHT22;64454;51.984;9.838;2023-12-20T06:36:56;7.80;25.00
75821;DHT22;64454;51.984;9.838;2023-12-20T06:39:22;7.70;2.20
75821;DHT22;64454;51.984;9.838;2023-12-20T06:41:48;7.80;7.40
75821;DHT22;64454;51.984;9.838;2023-12-20T06:44:14;7.80;8.10
75821;DHT22;64454;51.984;9.838;2023-12-20T06:46:40;7.80;12.70
75821;DHT22;64454;51.984;9.838;2023-12-20T06:49:06;7.70;13.80
75821;DHT22;64454;51.984;9.838;2023-12-20T06:51:32;7.80;17.80
75821;DHT22;64454;51.984;9.838;2023-12-20T06:53:58;7.80;14.80
75821;DHT22;64454;51.984;9.838;2023-12-20T06:56:26;7.60;19.20
75821;DHT22;64454;51.984;9.838;2023-12-20T06:58:52;7.70;22.50
75821;DHT22;64454;51.984;9.838;2023-12-20T07:01:18;7.70;18.10
75821;DHT22;64454;51.984;9.838;2023-12-20T07:03:44;7.70;35.70
75821;DHT22;64454;51.984;9.838;2023-12-20T07:06:10;7.60;47.70
75821;DHT22;64454;51.984;9.838;2023-12-20T07:08:36;7.60;51.90
75821;DHT22;64454;51.984;9.838;2023-12-20T07:11:03;7.80;63.30
75821;DHT22;64454;51.984;9.838;2023-12-20T07:13:30;7.90;63.80
75821;DHT22;64454;51.984;9.838;2023-12-20T07:15:56;7.70;62.80
75821;DHT22;64454;51.984;9.838;2023-12-20T07:18:22;7.80;75.10
75821;DHT22;64454;51.984;9.838;2023-12-20T07:20:48;7.80;80.50
75821;DHT22;64454;51.984;9.838;2023-12-20T07:23:14;7.70;50.00
75821;DHT22;64454;51.984;9.838;2023-12-20T07:25:40;7.60;44.30
75821;DHT22;64454;51.984;9.838;2023-12-20T07:28:06;7.60;41.80
75821;DHT22;64454;51.984;9.838;2023-12-20T07:30:33;7.40;36.10
75821;DHT22;64454;51.984;9.838;2023-12-20T07:32:59;7.40;41.80
75821;DHT22;64454;51.984;9.838;2023-12-20T07:35:26;7.30;28.00
75821;DHT22;64454;51.984;9.838;2023-12-20T07:37:52;7.30;37.60
75821;DHT22;64454;51.984;9.838;2023-12-20T07:40:18;7.30;35.30
75821;DHT22;64454;51.984;9.838;2023-12-20T07:42:44;7.30;30.10
75821;DHT22;64454;51.984;9.838;2023-12-20T07:45:11;7.40;28.00
75821;DHT22;64454;51.984;9.838;2023-12-20T07:47:38;7.40;11.00
75821;DHT22;64454;51.984;9.838;2023-12-20T07:50:05;7.40;1.00
75821;DHT22;64454;51.984;9.838;2023-12-20T07:52:31;7.30;1.00
75821;DHT22;64454;51.984;9.838;2023-12-20T07:54:57;7.40;6.70
75821;DHT22;64454;51.984;9.838;2023-12-20T07:57:23;7.40;7.00
75821;DHT22;64454;51.984;9.838;2023-12-20T07:59:50;7.40;14.40
75821;DHT22;64454;51.984;9.838;2023-12-20T08:02:16;7.50;1.00
75821;DHT22;64454;51.984;9.838;2023-12-20T08:04:43;7.40;14.60
75821;DHT22;64454;51.984;9.838;2023-12-20T08:07:09;7.50;7.20
75821;DHT22;64454;51.984;9.838;2023-12-20T08:09:35;7.50;55.90
75821;DHT22;64454;51.984;9.838;2023-12-20T08:12:02;7.50;99.90
75821;DHT22;64454;51.984;9.838;2023-12-20T08:14:29;7.40;99.90
75821;DHT22;64454;51.984;9.838;2023-12-20T08:16:55;7.40;99.90
75821;DHT22;64454;51.984;9.838;2023-12-20T08:19:21;7.50;99.90
75821;DHT22;64454;51.984;9.838;2023-12-20T08:21:47;7.40;99.90
75821;DHT22;64454;51.984;9.838;2023-12-20T08:24:14;7.40;99.90
75821;DHT22;64454;51.984;9.838;2023-12-20T08:26:40;7.50;99.90
75821;DHT22;64454;51.984;9.838;2023-12-20T08:29:06;7.40;99.90
75821;DHT22;64454;51.984;9.838;2023-12-20T08:31:32;7.50;99.90
75821;DHT22;64454;51.984;9.838;2023-12-20T08:33:58;7.40;99.90
75821;DHT22;64454;51.984;9.838;2023-12-20T08:36:24;7.50;99.90
75821;DHT22;64454;51.984;9.838;2023-12-20T08:38:51;7.60;99.90
75821;DHT22;64454;51.984;9.838;2023-12-20T08:41:18;7.60;99.90
75821;DHT22;64454;51.984;9.838;2023-12-20T08:43:44;7.60;99.90
75821;DHT22;64454;51.984;9.838;2023-12-20T08:46:10;7.50;99.90
75821;DHT22;64454;51.984;9.838;2023-12-20T08:48:37;7.60;99.90
75821;DHT22;64454;51.984;9.838;2023-12-20T08:51:03;7.70;99.90
75821;DHT22;64454;51.984;9.838;2023-12-20T08:53:29;7.70;99.90
75821;DHT22;64454;51.984;9.838;2023-12-20T08:55:56;7.80;99.90
75821;DHT22;64454;51.984;9.838;2023-12-20T08:58:26;7.80;99.90
75821;DHT22;64454;51.984;9.838;2023-12-20T09:00:52;7.80;99.90
75821;DHT22;64454;51.984;9.838;2023-12-20T09:03:18;7.80;99.90
75821;DHT22;64454;51.984;9.838;2023-12-20T09:05:44;7.80;99.90
75821;DHT22;64454;51.984;9.838;2023-12-20T09:08:10;7.80;99.90
75821;DHT22;64454;51.984;9.838;2023-12-20T09:10:37;7.90;99.90
75821;DHT22;64454;51.984;9.838;2023-12-20T09:13:04;8.00;99.90
75821;DHT22;64454;51.984;9.838;2023-12-20T09:15:30;8.10;99.90
75821;DHT22;64454;51.984;9.838;2023-12-20T09:17:56;8.10;99.90
75821;DHT22;64454;51.984;9.838;2023-12-20T09:20:22;8.10;99.90
75821;DHT22;64454;51.984;9.838;2023-12-20T09:22:49;8.10;99.90
75821;DHT22;64454;51.984;9.838;2023-12-20T09:25:15;8.20;99.90
75821;DHT22;64454;51.984;9.838;2023-12-20T09:27:43;8.30;99.90
75821;DHT22;64454;51.984;9.838;2023-12-20T09:30:09;8.20;99.90
75821;DHT22;64454;51.984;9.838;2023-12-20T09:32:36;8.20;99.90
75821;DHT22;64454;51.984;9.838;2023-12-20T09:35:02;8.10;99.90
75821;DHT22;64454;51.984;9.838;2023-12-20T09:37:30;8.10;99.90
75821;DHT22;64454;51.984;9.838;2023-12-20T09:39:56;8.00;99.90
75821;DHT22;64454;51.984;9.838;2023-12-20T09:42:29;7.90;99.90
75821;DHT22;64454;51.984;9.838;2023-12-20T09:45:07;8.00;99.90
75821;DHT22;64454;51.984;9.838;2023-12-20T09:47:35;8.00;99.90
75821;DHT22;64454;51.984;9.838;2023-12-20T09:50:02;8.00;99.90
75821;DHT22;64454;51.984;9.838;2023-12-20T09:52:28;7.90;99.90
75821;DHT22;64454;51.984;9.838;2023-12-20T09:54:55;8.00;99.90
75821;DHT22;64454;51.984;9.838;2023-12-20T09:57:23;8.00;99.90
75821;DHT22;64454;51.984;9.838;2023-12-20T09:59:49;8.00;99.90
75821;DHT22;64454;51.984;9.838;2023-12-20T10:02:18;8.00;99.90
75821;DHT22;64454;51.984;9.838;2023-12-20T10:04:49;8.00;99.90
75821;DHT22;64454;51.984;9.838;2023-12-20T10:07:15;7.90;99.90
75821;DHT22;64454;51.984;9.838;2023-12-20T10:09:42;7.80;99.90
75821;DHT22;64454;51.984;9.838;2023-12-20T10:12:09;7.80;99.90
75821;DHT22;64454;51.984;9.838;2023-12-20T10:14:35;8.00;99.90
75821;DHT22;64454;51.984;9.838;2023-12-20T10:17:05;8.10;99.90
75821;DHT22;64454;51.984;9.838;2023-12-20T10:19:33;8.10;99.90
75821;DHT22;64454;51.984;9.838;2023-12-20T10:21:59;8.20;99.90
75821;DHT22;64454;51.984;9.838;2023-12-20T10:24:28;8.20;99.90
75821;DHT22;64454;51.984;9.838;2023-12-20T10:27:01;8.30;99.90
75821;DHT22;64454;51.984;9.838;2023-12-20T10:29:32;8.40;99.90
75821;DHT22;64454;51.984;9.838;2023-12-20T10:31:59;8.50;99.90
75821;DHT22;64454;51.984;9.838;2023-12-20T10:34:25;8.40;99.90
75821;DHT22;64454;51.984;9.838;2023-12-20T10:36:52;8.30;99.90
75821;DHT22;64454;51.984;9.838;2023-12-20T10:39:19;8.30;99.90
75821;DHT22;64454;51.984;9.838;2023-12-20T10:41:46;8.20;99.90
75821;DHT22;64454;51.984;9.838;2023-12-20T10:44:14;8.20;99.90
75821;DHT22;64454;51.984;9.838;2023-12-20T10:46:41;8.00;99.90
75821;DHT22;64454;51.984;9.838;2023-12-20T10:49:13;8.00;99.90
75821;DHT22;64454;51.984;9.838;2023-12-20T10:51:42;8.00;99.90
75821;DHT22;64454;51.984;9.838;2023-12-20T10:54:12;8.00;99.90
75821;DHT22;64454;51.984;9.838;2023-12-20T10:56:38;8.10;99.90
75821;DHT22;64454;51.984;9.838;2023-12-20T10:59:06;8.00;99.90
75821;DHT22;64454;51.984;9.838;2023-12-20T11:01:38;8.00;99.90
75821;DHT22;64454;51.984;9.838;2023-12-20T11:04:10;8.00;99.90
75821;DHT22;64454;51.984;9.838;2023-12-20T11:06:49;8.10;99.90
75821;DHT22;64454;51.984;9.838;2023-12-20T11:09:23;8.10;99.90
75821;DHT22;64454;51.984;9.838;2023-12-20T11:12:02;8.00;99.90
75821;DHT22;64454;51.984;9.838;2023-12-20T11:14:46;8.10;99.90
75821;DHT22;64454;51.984;9.838;2023-12-20T11:17:14;8.10;99.90
75821;DHT22;64454;51.984;9.838;2023-12-20T11:20:07;8.20;99.90
75821;DHT22;64454;51.984;9.838;2023-12-20T11:22:36;8.10;99.90
75821;DHT22;64454;51.984;9.838;2023-12-20T11:25:05;8.20;99.90
75821;DHT22;64454;51.984;9.838;2023-12-20T11:27:33;8.30;99.90
75821;DHT22;64454;51.984;9.838;2023-12-20T11:30:02;8.30;99.90
75821;DHT22;64454;51.984;9.838;2023-12-20T11:32:34;8.30;99.90
75821;DHT22;64454;51.984;9.838;2023-12-20T11:35:17;8.20;99.90
75821;DHT22;64454;51.984;9.838;2023-12-20T11:37:45;8.20;99.90
75821;DHT22;64454;51.984;9.838;2023-12-20T11:40:14;8.20;99.90
75821;DHT22;64454;51.984;9.838;2023-12-20T11:42:43;8.10;99.90
75821;DHT22;64454;51.984;9.838;2023-12-20T11:45:10;8.00;99.90
75821;DHT22;64454;51.984;9.838;2023-12-20T11:47:38;8.10;99.90
75821;DHT22;64454;51.984;9.838;2023-12-20T11:50:05;8.10;99.90
75821;DHT22;64454;51.984;9.838;2023-12-20T11:52:32;8.10;99.90
75821;DHT22;64454;51.984;9.838;2023-12-20T11:54:58;8.10;99.90
75821;DHT22;64454;51.984;9.838;2023-12-20T11:57:25;8.10;99.90
75821;DHT22;64454;51.984;9.838;2023-12-20T11:59:52;8.10;99.90
75821;DHT22;64454;51.984;9.838;2023-12-20T12:02:18;8.00;99.90
75821;DHT22;64454;51.984;9.838;2023-12-20T12:04:44;8.10;99.90
75821;DHT22;64454;51.984;9.838;2023-12-20T12:07:10;8.10;99.90
75821;DHT22;64454;51.984;9.838;2023-12-20T12:09:36;8.10;99.90
75821;DHT22;64454;51.984;9.838;2023-12-20T12:12:03;8.10;99.90
75821;DHT22;64454;51.984;9.838;2023-12-20T12:14:31;8.10;99.90
75821;DHT22;64454;51.984;9.838;2023-12-20T12:16:57;8.10;99.90
75821;DHT22;64454;51.984;9.838;2023-12-20T12:19:24;8.10;99.90
75821;DHT22;64454;51.984;9.838;2023-12-20T12:21:51;8.20;99.90
75821;DHT22;64454;51.984;9.838;2023-12-20T12:24:30;8.10;99.90
75821;DHT22;64454;51.984;9.838;2023-12-20T12:26:57;8.20;99.90
75821;DHT22;64454;51.984;9.838;2023-12-20T12:29:23;8.30;99.90
75821;DHT22;64454;51.984;9.838;2023-12-20T12:31:50;8.40;99.90
75821;DHT22;64454;51.984;9.838;2023-12-20T12:34:17;8.40;99.90
75821;DHT22;64454;51.984;9.838;2023-12-20T12:36:44;8.40;99.90
75821;DHT22;64454;51.984;9.838;2023-12-20T12:39:12;8.40;99.90
75821;DHT22;64454;51.984;9.838;2023-12-20T12:41:40;8.40;99.90
75821;DHT22;64454;51.984;9.838;2023-12-20T12:44:06;8.40;99.90
75821;DHT22;64454;51.984;9.838;2023-12-20T12:46:32;8.50;99.90
75821;DHT22;64454;51.984;9.838;2023-12-20T12:48:59;8.50;99.90
75821;DHT22;64454;51.984;9.838;2023-12-20T12:51:26;8.50;99.90
75821;DHT22;64454;51.984;9.838;2023-12-20T12:53:52;8.50;99.90
75821;DHT22;64454;51.984;9.838;2023-12-20T12:56:19;8.50;99.90
75821;DHT22;64454;51.984;9.838;2023-12-20T12:58:47;8.60;99.90
75821;DHT22;64454;51.984;9.838;2023-12-20T13:01:13;8.60;99.90
75821;DHT22;64454;51.984;9.838;2023-12-20T13:03:39;8.60;99.90
75821;DHT22;64454;51.984;9.838;2023-12-20T13:06:06;8.50;99.90
75821;DHT22;64454;51.984;9.838;2023-12-20T13:08:34;8.50;99.90
75821;DHT22;64454;51.984;9.838;2023-12-20T13:11:00;8.40;99.90
75821;DHT22;64454;51.984;9.838;2023-12-20T13:13:29;8.40;99.90
75821;DHT22;64454;51.984;9.838;2023-12-20T13:15:55;8.30;99.90
75821;DHT22;64454;51.984;9.838;2023-12-20T13:18:22;8.20;99.90
75821;DHT22;64454;51.984;9.838;2023-12-20T13:20:49;8.10;99.90
75821;DHT22;64454;51.984;9.838;2023-12-20T13:23:16;8.00;99.90
75821;DHT22;64454;51.984;9.838;2023-12-20T13:25:43;7.90;99.90
75821;DHT22;64454;51.984;9.838;2023-12-20T13:28:11;7.80;99.90
75821;DHT22;64454;51.984;9.838;2023-12-20T13:30:37;7.90;99.90
75821;DHT22;64454;51.984;9.838;2023-12-20T13:33:04;7.80;99.90
75821;DHT22;64454;51.984;9.838;2023-12-20T13:35:31;7.80;99.90
75821;DHT22;64454;51.984;9.838;2023-12-20T13:37:57;7.70;99.90
75821;DHT22;64454;51.984;9.838;2023-12-20T13:40:24;7.70;99.90
75821;DHT22;64454;51.984;9.838;2023-12-20T13:42:50;7.50;99.90
75821;DHT22;64454;51.984;9.838;2023-12-20T13:45:16;7.50;99.90
75821;DHT22;64454;51.984;9.838;2023-12-20T13:47:42;7.70;99.90
75821;DHT22;64454;51.984;9.838;2023-12-20T13:50:09;7.70;99.90
75821;DHT22;64454;51.984;9.838;2023-12-20T13:52:35;7.50;99.90
75821;DHT22;64454;51.984;9.838;2023-12-20T13:55:01;7.50;99.90
75821;DHT22;64454;51.984;9.838;2023-12-20T13:57:28;7.60;99.90
75821;DHT22;64454;51.984;9.838;2023-12-20T13:59:55;7.70;99.90
75821;DHT22;64454;51.984;9.838;2023-12-20T14:02:22;7.70;99.90
75821;DHT22;64454;51.984;9.838;2023-12-20T14:04:48;7.70;99.90
75821;DHT22;64454;51.984;9.838;2023-12-20T14:07:14;7.50;99.90
75821;DHT22;64454;51.984;9.838;2023-12-20T14:09:41;7.50;99.90
75821;DHT22;64454;51.984;9.838;2023-12-20T14:12:10;7.40;99.90
75821;DHT22;64454;51.984;9.838;2023-12-20T14:14:37;7.50;99.90
75821;DHT22;64454;51.984;9.838;2023-12-20T14:17:03;7.40;99.90
75821;DHT22;64454;51.984;9.838;2023-12-20T14:19:31;7.40;99.90
75821;DHT22;64454;51.984;9.838;2023-12-20T14:21:58;7.50;99.90
75821;DHT22;64454;51.984;9.838;2023-12-20T14:24:26;7.50;99.90
75821;DHT22;64454;51.984;9.838;2023-12-20T14:26:52;7.60;99.90
75821;DHT22;64454;51.984;9.838;2023-12-20T14:29:19;7.50;99.90
75821;DHT22;64454;51.984;9.838;2023-12-20T14:31:45;7.50;99.90
75821;DHT22;64454;51.984;9.838;2023-12-20T14:34:12;7.50;99.90
75821;DHT22;64454;51.984;9.838;2023-12-20T14:36:38;7.50;99.90
75821;DHT22;64454;51.984;9.838;2023-12-20T14:39:04;7.60;99.90
75821;DHT22;64454;51.984;9.838;2023-12-20T14:41:31;7.30;99.90
75821;DHT22;64454;51.984;9.838;2023-12-20T14:43:57;7.30;99.90
75821;DHT22;64454;51.984;9.838;2023-12-20T14:46:25;7.30;99.90
75821;DHT22;64454;51.984;9.838;2023-12-20T14:48:52;7.30;99.90
75821;DHT22;64454;51.984;9.838;2023-12-20T14:51:18;7.30;99.90
75821;DHT22;64454;51.984;9.838;2023-12-20T14:53:44;7.30;99.90
75821;DHT22;64454;51.984;9.838;2023-12-20T14:56:12;7.40;99.90
75821;DHT22;64454;51.984;9.838;2023-12-20T14:58:38;7.30;99.90
75821;DHT22;64454;51.984;9.838;2023-12-20T15:01:04;7.30;99.90
75821;DHT22;64454;51.984;9.838;2023-12-20T15:03:33;7.30;99.90
75821;DHT22;64454;51.984;9.838;2023-12-20T15:06:00;7.30;99.90
75821;DHT22;64454;51.984;9.838;2023-12-20T15:08:26;7.20;99.90
75821;DHT22;64454;51.984;9.838;2023-12-20T15:10:52;7.20;99.90
75821;DHT22;64454;51.984;9.838;2023-12-20T15:13:18;7.30;99.90
75821;DHT22;64454;51.984;9.838;2023-12-20T15:15:45;7.30;99.90
75821;DHT22;64454;51.984;9.838;2023-12-20T15:18:12;7.30;99.90
75821;DHT22;64454;51.984;9.838;2023-12-20T15:20:38;7.30;99.90
75821;DHT22;64454;51.984;9.838;2023-12-20T15:23:05;7.30;99.90
75821;DHT22;64454;51.984;9.838;2023-12-20T15:25:33;7.30;99.90
75821;DHT22;64454;51.984;9.838;2023-12-20T15:27:58;7.30;99.90
75821;DHT22;64454;51.984;9.838;2023-12-20T15:30:25;7.20;99.90
75821;DHT22;64454;51.984;9.838;2023-12-20T15:32:51;7.20;99.90
75821;DHT22;64454;51.984;9.838;2023-12-20T15:35:17;7.10;99.90
75821;DHT22;64454;51.984;9.838;2023-12-20T15:37:43;7.20;99.90
75821;DHT22;64454;51.984;9.838;2023-12-20T15:40:11;7.10;99.90
75821;DHT22;64454;51.984;9.838;2023-12-20T15:42:38;7.10;99.90
75821;DHT22;64454;51.984;9.838;2023-12-20T15:45:05;7.10;99.90
75821;DHT22;64454;51.984;9.838;2023-12-20T15:47:33;7.20;99.90